Peotone Weather
Station Historical Data
Daily Summary for September 14, 2017 Units:  English    Metric   Both
« Previous Day
Next Day »
Daily Weekly Monthly Yearly Custom
  High: Low: Average:
Temperature: 78.3 °F 55.8 °F 64.6 °F
Dew Point: 66.2 °F 55.0 °F 60.3 °F
Humidity: 98% 63% 87%
Wind Speed: 9.2mph 0.0mph 1.1mph
Wind Gust: 11.5mph - -
Wind- - SSE
Pressure: 29.94 in 29.79 in -
Precipitation: 0.01 in    
Historical Graphs
 
 
Tabular Data for September 14, 2017
Time Temperature Dew Point Pressure Wind Wind Speed Wind Gust Humidity Rainfall Rate (Hourly) solar Conditions
00:00 59.7 °F 58.3 °F 29.79 in Calm     95% 0.00 in 0.00 W/m2
00:03 59.6 °F 58.2 °F 29.79 in Calm   1.1 mph 95% 0.00 in 0.00 W/m2
00:05 59.6 °F 58.2 °F 29.79 in Calm   1.1 mph 95% 0.00 in 0.00 W/m2
00:08 59.6 °F 58.2 °F 29.79 in Calm     95% 0.00 in 0.00 W/m2
00:10 59.5 °F 58.1 °F 29.79 in Calm     95% 0.00 in 0.00 W/m2
00:13 59.4 °F 58.0 °F 29.79 in Calm     95% 0.00 in 0.00 W/m2
00:15 59.6 °F 58.2 °F 29.79 in Calm     95% 0.00 in 0.00 W/m2
00:19 59.4 °F 58.0 °F 29.79 in Calm     95% 0.00 in 0.00 W/m2
00:20 59.2 °F 57.8 °F 29.79 in Calm     95% 0.00 in 0.00 W/m2
00:24 59.1 °F 57.7 °F 29.79 in Calm     95% 0.00 in 0.00 W/m2
00:25 59.0 °F 57.9 °F 29.79 in Calm     96% 0.00 in 0.00 W/m2
00:29 58.9 °F 57.5 °F 29.79 in Calm     95% 0.00 in 0.00 W/m2
00:30 59.0 °F 57.6 °F 29.79 in Calm     95% 0.00 in 0.00 W/m2
00:34 59.0 °F 57.9 °F 29.80 in Calm     96% 0.00 in 0.00 W/m2
00:35 59.0 °F 57.9 °F 29.80 in Calm     96% 0.00 in 0.00 W/m2
00:39 58.7 °F 57.3 °F 29.80 in Calm     95% 0.00 in 0.00 W/m2
00:40 58.6 °F 57.5 °F 29.80 in Calm     96% 0.00 in 0.00 W/m2
00:44 58.5 °F 57.4 °F 29.80 in ESE 1.1 mph 1.1 mph 96% 0.00 in 0.00 W/m2
00:45 58.4 °F 57.3 °F 29.80 in Calm   1.1 mph 96% 0.00 in 0.00 W/m2
00:49 58.4 °F 57.3 °F 29.80 in Calm     96% 0.00 in 0.00 W/m2
00:50 58.5 °F 57.4 °F 29.80 in Calm     96% 0.00 in 0.00 W/m2
00:54 58.5 °F 57.4 °F 29.80 in Calm     96% 0.00 in 0.00 W/m2
00:55 58.6 °F 57.5 °F 29.80 in Calm     96% 0.00 in 0.00 W/m2
01:00 59.0 °F 57.9 °F 29.80 in Calm   1.1 mph 96% 0.00 in 0.00 W/m2
01:05 59.4 °F 58.3 °F 29.80 in Calm     96% 0.00 in 0.00 W/m2
01:10 59.5 °F 58.4 °F 29.80 in Calm     96% 0.00 in 0.00 W/m2
01:15 59.3 °F 58.2 °F 29.80 in Calm     96% 0.00 in 0.00 W/m2
01:20 59.0 °F 57.9 °F 29.80 in Calm     96% 0.00 in 0.00 W/m2
01:25 58.7 °F 57.6 °F 29.80 in Calm     96% 0.00 in 0.00 W/m2
01:30 59.1 °F 58.0 °F 29.80 in Calm     96% 0.00 in 0.00 W/m2
01:35 59.1 °F 58.0 °F 29.80 in Calm     96% 0.00 in 0.00 W/m2
01:40 58.9 °F 57.8 °F 29.80 in Calm     96% 0.00 in 0.00 W/m2
01:41 58.9 °F 57.8 °F 29.80 in Calm     96% 0.00 in 0.00 W/m2
01:45 58.8 °F 57.7 °F 29.80 in Calm     96% 0.00 in 0.00 W/m2
01:46 58.8 °F 57.7 °F 29.80 in Calm     96% 0.00 in 0.00 W/m2
01:50 58.5 °F 57.4 °F 29.80 in Calm     96% 0.00 in 0.00 W/m2
01:51 58.6 °F 57.5 °F 29.80 in Calm     96% 0.00 in 0.00 W/m2
01:55 58.4 °F 57.3 °F 29.80 in Calm     96% 0.00 in 0.00 W/m2
01:56 58.4 °F 57.3 °F 29.80 in Calm     96% 0.00 in 0.00 W/m2
02:00 58.3 °F 57.2 °F 29.80 in Calm     96% 0.00 in 0.00 W/m2
02:01 58.3 °F 57.2 °F 29.80 in Calm     96% 0.00 in 0.00 W/m2
02:05 58.2 °F 57.1 °F 29.81 in Calm     96% 0.00 in 0.00 W/m2
02:06 58.2 °F 57.1 °F 29.81 in Calm     96% 0.00 in 0.00 W/m2
02:10 58.0 °F 56.9 °F 29.81 in Calm     96% 0.00 in 0.00 W/m2
02:11 58.0 °F 56.9 °F 29.81 in Calm     96% 0.00 in 0.00 W/m2
02:15 57.9 °F 56.8 °F 29.81 in Calm     96% 0.00 in 0.00 W/m2
02:16 57.9 °F 56.8 °F 29.81 in Calm     96% 0.00 in 0.00 W/m2
02:20 57.9 °F 56.8 °F 29.81 in Calm     96% 0.00 in 0.00 W/m2
02:21 57.9 °F 56.8 °F 29.81 in Calm     96% 0.00 in 0.00 W/m2
02:25 57.8 °F 56.7 °F 29.81 in Calm     96% 0.00 in 0.00 W/m2
02:26 57.8 °F 56.7 °F 29.81 in Calm     96% 0.00 in 0.00 W/m2
02:30 57.7 °F 56.6 °F 29.81 in Calm     96% 0.00 in 0.00 W/m2
02:32 57.7 °F 56.6 °F 29.81 in Calm     96% 0.00 in 0.00 W/m2
02:35 57.6 °F 56.5 °F 29.81 in Calm     96% 0.00 in 0.00 W/m2
02:37 57.5 °F 56.4 °F 29.81 in Calm     96% 0.00 in 0.00 W/m2
02:40 57.4 °F 56.6 °F 29.81 in Calm     97% 0.00 in 0.00 W/m2
02:42 57.3 °F 56.5 °F 29.81 in Calm     97% 0.00 in 0.00 W/m2
02:45 57.4 °F 56.3 °F 29.81 in Calm     96% 0.00 in 0.00 W/m2
02:47 57.3 °F 56.2 °F 29.81 in Calm     96% 0.00 in 0.00 W/m2
02:50 57.0 °F 55.9 °F 29.81 in Calm     96% 0.00 in 0.00 W/m2
02:52 57.0 °F 55.9 °F 29.81 in Calm     96% 0.00 in 0.00 W/m2
02:55 57.0 °F 56.2 °F 29.81 in Calm     97% 0.00 in 0.00 W/m2
02:57 57.1 °F 56.3 °F 29.81 in Calm     97% 0.00 in 0.00 W/m2
03:06 57.1 °F 56.3 °F 29.81 in Calm     97% 0.00 in 0.00 W/m2
03:11 57.1 °F 56.3 °F 29.81 in Calm     97% 0.00 in 0.00 W/m2
03:16 57.1 °F 56.3 °F 29.81 in Calm     97% 0.00 in 0.00 W/m2
03:21 57.3 °F 56.5 °F 29.81 in Calm     97% 0.00 in 0.00 W/m2
03:26 57.2 °F 56.4 °F 29.82 in Calm     97% 0.00 in 0.00 W/m2
03:31 57.1 °F 56.3 °F 29.82 in Calm     97% 0.00 in 0.00 W/m2
03:36 56.9 °F 56.1 °F 29.82 in Calm     97% 0.00 in 0.00 W/m2
03:41 56.7 °F 55.9 °F 29.82 in Calm     97% 0.00 in 0.00 W/m2
03:47 56.6 °F 55.8 °F 29.82 in Calm     97% 0.00 in 0.00 W/m2
03:52 56.5 °F 55.7 °F 29.82 in Calm     97% 0.00 in 0.00 W/m2
03:57 56.4 °F 55.6 °F 29.82 in Calm     97% 0.00 in 0.00 W/m2
04:02 56.4 °F 55.6 °F 29.82 in Calm     97% 0.00 in 0.00 W/m2
05:22 56.7 °F 55.9 °F 29.83 in Calm     97% 0.00 in 0.00 W/m2
05:32 56.7 °F 55.9 °F 29.84 in Calm     97% 0.00 in 0.00 W/m2
05:37 56.7 °F 55.9 °F 29.84 in Calm     97% 0.00 in 0.00 W/m2
05:42 57.0 °F 56.2 °F 29.84 in Calm     97% 0.00 in 0.00 W/m2
05:47 56.9 °F 56.1 °F 29.84 in Calm     97% 0.00 in 0.00 W/m2
05:52 56.9 °F 56.1 °F 29.85 in Calm     97% 0.00 in 0.00 W/m2
05:57 56.9 °F 56.1 °F 29.85 in Calm     97% 0.00 in 0.00 W/m2
06:02 56.7 °F 55.9 °F 29.85 in Calm     97% 0.00 in 0.00 W/m2
06:07 56.4 °F 55.6 °F 29.85 in Calm     97% 0.00 in 0.00 W/m2
06:12 56.2 °F 55.4 °F 29.85 in Calm     97% 0.00 in 0.00 W/m2
06:17 56.2 °F 55.4 °F 29.85 in Calm     97% 0.00 in 0.00 W/m2
06:23 56.2 °F 55.4 °F 29.86 in Calm     97% 0.00 in 0.00 W/m2
06:28 55.9 °F 55.1 °F 29.86 in Calm     97% 0.00 in 0.00 W/m2
06:33 55.8 °F 55.0 °F 29.86 in ESE 1.1 mph 2.3 mph 97% 0.00 in 0.00 W/m2
06:38 55.9 °F 55.1 °F 29.86 in ESE 2.3 mph 3.4 mph 97% 0.00 in 0.00 W/m2
06:43 55.9 °F 55.1 °F 29.86 in Calm   1.1 mph 97% 0.00 in 7.00 W/m2
06:48 55.9 °F 55.1 °F 29.86 in Calm   2.3 mph 97% 0.00 in 11.00 W/m2
06:53 55.9 °F 55.1 °F 29.86 in ESE 1.1 mph 2.3 mph 97% 0.00 in 14.00 W/m2
06:58 56.0 °F 55.2 °F 29.86 in Calm     97% 0.00 in 19.00 W/m2
07:03 56.2 °F 55.4 °F 29.86 in Calm   1.1 mph 97% 0.00 in 23.00 W/m2
07:08 56.1 °F 55.3 °F 29.86 in Calm     97% 0.00 in 26.00 W/m2
07:13 56.5 °F 55.7 °F 29.87 in Calm     97% 0.00 in 37.00 W/m2
07:18 56.6 °F 55.8 °F 29.87 in Calm     97% 0.00 in 35.00 W/m2
07:23 56.6 °F 55.8 °F 29.87 in Calm     97% 0.00 in 51.00 W/m2
07:29 56.8 °F 56.0 °F 29.87 in Calm     97% 0.00 in 69.00 W/m2
07:34 57.0 °F 56.2 °F 29.88 in Calm     97% 0.00 in 69.00 W/m2
07:39 57.1 °F 56.3 °F 29.88 in Calm     97% 0.00 in 72.00 W/m2
07:44 57.2 °F 56.4 °F 29.88 in Calm     97% 0.00 in 83.00 W/m2
07:49 57.4 °F 56.6 °F 29.88 in Calm     97% 0.00 in 86.00 W/m2
07:54 58.0 °F 57.2 °F 29.88 in Calm     97% 0.00 in 105.00 W/m2
07:59 58.2 °F 57.4 °F 29.88 in Calm     97% 0.00 in 105.00 W/m2
08:04 58.0 °F 57.2 °F 29.89 in Calm     97% 0.00 in 111.00 W/m2
08:09 58.2 °F 57.4 °F 29.89 in ESE 1.1 mph 2.3 mph 97% 0.00 in 102.00 W/m2
08:14 58.3 °F 57.5 °F 29.89 in ESE 2.3 mph 2.3 mph 97% 0.00 in 125.00 W/m2
08:19 58.7 °F 57.8 °F 29.89 in ESE 1.1 mph 1.1 mph 97% 0.00 in 118.00 W/m2
08:24 58.8 °F 58.0 °F 29.89 in Calm   2.3 mph 97% 0.00 in 134.00 W/m2
08:30 58.9 °F 58.3 °F 29.89 in ESE 1.1 mph 1.1 mph 98% 0.00 in 146.00 W/m2
08:35 59.0 °F 58.4 °F 29.90 in Calm   2.3 mph 98% 0.00 in 148.00 W/m2
08:40 59.8 °F 59.2 °F 29.90 in Calm     98% 0.00 in 151.00 W/m2
08:45 59.4 °F 58.5 °F 29.90 in Calm   3.4 mph 97% 0.00 in 149.00 W/m2
08:50 59.5 °F 58.9 °F 29.90 in Calm     98% 0.00 in 158.00 W/m2
08:55 59.7 °F 59.1 °F 29.90 in Calm   2.3 mph 98% 0.00 in 192.00 W/m2
09:00 60.2 °F 59.3 °F 29.90 in Calm   2.3 mph 97% 0.00 in 197.00 W/m2
09:05 60.3 °F 59.7 °F 29.91 in ESE 2.3 mph 2.3 mph 98% 0.00 in 190.00 W/m2
09:10 60.1 °F 59.2 °F 29.91 in ESE 3.4 mph 3.4 mph 97% 0.00 in 192.00 W/m2
09:15 60.3 °F 59.7 °F 29.91 in ESE 1.1 mph 1.1 mph 98% 0.00 in 200.00 W/m2
09:20 60.5 °F 59.9 °F 29.91 in ESE 3.4 mph 3.4 mph 98% 0.00 in 229.00 W/m2
09:25 60.5 °F 59.9 °F 29.91 in ESE 1.1 mph 2.3 mph 98% 0.00 in 206.00 W/m2
09:30 60.9 °F 60.3 °F 29.92 in Calm   3.4 mph 98% 0.00 in 230.00 W/m2
09:35 61.0 °F 60.4 °F 29.91 in Calm     98% 0.00 in 227.00 W/m2
09:40 61.0 °F 60.4 °F 29.91 in Calm   4.6 mph 98% 0.00 in 232.00 W/m2
09:45 61.4 °F 60.8 °F 29.92 in SE 1.1 mph 2.3 mph 98% 0.00 in 265.00 W/m2
09:50 61.4 °F 60.8 °F 29.92 in Calm   2.3 mph 98% 0.00 in 239.00 W/m2
09:55 61.4 °F 60.8 °F 29.92 in Calm   2.3 mph 98% 0.00 in 241.00 W/m2
10:01 61.4 °F 60.8 °F 29.92 in Calm   2.3 mph 98% 0.00 in 251.00 W/m2
10:06 62.1 °F 61.5 °F 29.92 in Calm   5.8 mph 98% 0.00 in 258.00 W/m2
10:11 62.2 °F 61.6 °F 29.92 in ESE 3.4 mph 5.8 mph 98% 0.00 in 309.00 W/m2
10:16 62.3 °F 61.7 °F 29.91 in ESE 4.6 mph 4.6 mph 98% 0.00 in 271.00 W/m2
10:21 62.5 °F 61.9 °F 29.92 in Calm   3.4 mph 98% 0.00 in 295.00 W/m2
10:26 62.4 °F 61.8 °F 29.91 in Calm   5.8 mph 98% 0.00 in 295.00 W/m2
10:31 63.0 °F 62.4 °F 29.91 in SSE 1.1 mph 2.3 mph 98% 0.00 in 346.00 W/m2
10:36 63.4 °F 62.8 °F 29.91 in SE 3.4 mph 6.9 mph 98% 0.01 in 299.00 W/m2
10:41 63.6 °F 62.7 °F 29.92 in SE 1.1 mph 1.1 mph 97% 0.01 in 427.00 W/m2
10:46 63.9 °F 63.0 °F 29.92 in SSE 3.4 mph 3.4 mph 97% 0.01 in 336.00 W/m2
10:51 64.1 °F 63.2 °F 29.92 in SSW 3.4 mph 3.4 mph 97% 0.01 in 315.00 W/m2
10:57 64.8 °F 63.6 °F 29.91 in South 2.3 mph 4.6 mph 96% 0.01 in 364.00 W/m2
11:02 65.0 °F 63.2 °F 29.92 in Calm   2.3 mph 94% 0.01 in 385.00 W/m2
11:07 65.7 °F 64.2 °F 29.92 in SSE 2.3 mph 4.6 mph 95% 0.01 in 457.00 W/m2
11:12 66.3 °F 63.6 °F 29.92 in SSE 1.1 mph 2.3 mph 91% 0.01 in 478.00 W/m2
11:17 66.8 °F 63.8 °F 29.92 in Calm   1.1 mph 90% 0.01 in 380.00 W/m2
11:22 67.8 °F 64.8 °F 29.91 in Calm     90% 0.01 in 863.00 W/m2
11:27 68.0 °F 64.0 °F 29.91 in SSE 1.1 mph 2.3 mph 87% 0.01 in 334.00 W/m2
11:32 67.4 °F 63.7 °F 29.92 in West 2.3 mph 2.3 mph 88% 0.01 in 359.00 W/m2
11:38 67.5 °F 63.8 °F 29.91 in Calm   1.1 mph 88% 0.00 in 448.00 W/m2
11:43 68.5 °F 64.8 °F 29.91 in WSW 1.1 mph 2.3 mph 88% 0.00 in 854.00 W/m2
11:48 69.5 °F 65.1 °F 29.91 in South 3.4 mph 3.4 mph 86% 0.00 in 807.00 W/m2
11:53 70.2 °F 65.5 °F 29.91 in Calm   1.1 mph 85% 0.00 in 840.00 W/m2
11:58 69.9 °F 64.8 °F 29.91 in SSE 1.1 mph 3.4 mph 84% 0.00 in 158.00 W/m2
12:03 70.6 °F 65.2 °F 29.91 in WSW 3.4 mph 6.9 mph 83% 0.00 in 795.00 W/m2
12:08 70.6 °F 64.5 °F 29.91 in SSE 2.3 mph 5.8 mph 81% 0.00 in 814.00 W/m2
12:13 72.2 °F 66.1 °F 29.91 in SE 2.3 mph 4.6 mph 81% 0.00 in 847.00 W/m2
12:19 71.9 °F 65.4 °F 29.91 in Calm   5.8 mph 80% 0.00 in 875.00 W/m2
12:24 72.1 °F 65.6 °F 29.91 in ESE 2.3 mph 4.6 mph 80% 0.00 in 875.00 W/m2
12:29 72.6 °F 65.0 °F 29.91 in Calm   5.8 mph 77% 0.00 in 308.00 W/m2
12:34 73.1 °F 65.1 °F 29.91 in SSE 2.3 mph 9.2 mph 76% 0.00 in 898.00 W/m2
12:39 73.3 °F 64.5 °F 29.90 in South 1.1 mph 5.8 mph 74% 0.00 in 902.00 W/m2
12:44 73.6 °F 64.0 °F 29.90 in SSE 2.3 mph 8.1 mph 72% 0.00 in 186.00 W/m2
12:49 72.8 °F 64.4 °F 29.90 in Calm   6.9 mph 75% 0.00 in 241.00 W/m2
12:54 73.4 °F 65.8 °F 29.90 in SSE 2.3 mph 8.1 mph 77% 0.00 in 925.00 W/m2
12:59 74.2 °F 65.0 °F 29.90 in SSE 9.2 mph 9.2 mph 73% 0.00 in 830.00 W/m2
13:04 74.6 °F 65.0 °F 29.90 in SSE 6.9 mph 11.5 mph 72% 0.00 in 851.00 W/m2
13:09 75.0 °F 65.4 °F 29.90 in Calm   5.8 mph 72% 0.00 in 865.00 W/m2
13:15 74.8 °F 64.4 °F 29.90 in SSE 4.6 mph 11.5 mph 70% 0.00 in 879.00 W/m2
13:20 75.1 °F 64.7 °F 29.90 in Calm   9.2 mph 70% 0.00 in 178.00 W/m2
13:25 73.8 °F 64.2 °F 29.90 in SSW 4.6 mph 4.6 mph 72% 0.00 in 311.00 W/m2
13:30 75.0 °F 66.2 °F 29.89 in SW 6.9 mph 8.1 mph 74% 0.00 in 900.00 W/m2
13:35 76.2 °F 65.3 °F 29.89 in SW 3.4 mph 9.2 mph 69% 0.00 in 858.00 W/m2
13:40 75.4 °F 64.5 °F 29.89 in SW 1.1 mph 9.2 mph 69% 0.00 in 858.00 W/m2
13:45 75.3 °F 64.8 °F 29.89 in SE 3.4 mph 6.9 mph 70% 0.00 in 840.00 W/m2
13:50 77.5 °F 65.3 °F 29.89 in SSE 4.6 mph 8.1 mph 66% 0.00 in 807.00 W/m2
13:56 76.6 °F 64.0 °F 29.89 in South 2.3 mph 5.8 mph 65% 0.00 in 276.00 W/m2
14:01 75.7 °F 65.6 °F 29.89 in SW 1.1 mph 4.6 mph 71% 0.00 in 853.00 W/m2
14:06 76.7 °F 64.9 °F 29.89 in South 6.9 mph 11.5 mph 67% 0.00 in 902.00 W/m2
14:11 76.2 °F 63.6 °F 29.89 in SE 2.3 mph 9.2 mph 65% 0.00 in 243.00 W/m2
14:16 76.7 °F 64.5 °F 29.89 in Calm   2.3 mph 66% 0.00 in 171.00 W/m2
14:21 76.0 °F 64.3 °F 29.89 in Calm   5.8 mph 67% 0.00 in 213.00 W/m2
14:26 75.5 °F 64.6 °F 29.89 in SSE 1.1 mph 6.9 mph 69% 0.00 in 197.00 W/m2
14:31 76.0 °F 64.3 °F 29.89 in SE 2.3 mph 6.9 mph 67% 0.00 in 872.00 W/m2
14:36 76.1 °F 64.8 °F 29.88 in ESE 4.6 mph 5.8 mph 68% 0.00 in 213.00 W/m2
14:41 77.1 °F 64.4 °F 29.88 in SSE 5.8 mph 6.9 mph 65% 0.00 in 765.00 W/m2
14:46 77.4 °F 65.2 °F 29.88 in Calm     66% 0.00 in 759.00 W/m2
14:52 77.3 °F 65.5 °F 29.88 in SSW 5.8 mph 6.9 mph 67% 0.00 in 722.00 W/m2
14:57 78.3 °F 65.6 °F 29.88 in SW 4.6 mph 4.6 mph 65% 0.00 in 691.00 W/m2
15:02 78.2 °F 64.6 °F 29.88 in SSE 3.4 mph 3.4 mph 63% 0.00 in 673.00 W/m2
15:07 77.3 °F 63.7 °F 29.88 in Calm   1.1 mph 63% 0.00 in 645.00 W/m2
15:12 77.0 °F 63.9 °F 29.87 in ESE 4.6 mph 5.8 mph 64% 0.00 in 631.00 W/m2
15:17 76.8 °F 63.7 °F 29.88 in West 4.6 mph 4.6 mph 64% 0.00 in 619.00 W/m2
15:22 76.6 °F 64.0 °F 29.87 in South 8.1 mph 9.2 mph 65% 0.00 in 606.00 W/m2
15:27 76.6 °F 63.5 °F 29.87 in SSE 1.1 mph 2.3 mph 64% 0.00 in 102.00 W/m2
15:33 76.1 °F 63.0 °F 29.87 in South 8.1 mph 8.1 mph 64% 0.00 in 98.00 W/m2
15:38 76.4 °F 64.2 °F 29.87 in SSE 2.3 mph 2.3 mph 66% 0.00 in 79.00 W/m2
15:43 76.8 °F 64.2 °F 29.87 in SE 2.3 mph 8.1 mph 65% 0.00 in 162.00 W/m2
15:48 77.0 °F 64.3 °F 29.87 in Calm   8.1 mph 65% 0.00 in 163.00 W/m2
15:53 76.8 °F 64.2 °F 29.87 in South 6.9 mph 11.5 mph 65% 0.00 in 67.00 W/m2
15:58 76.2 °F 63.6 °F 29.87 in Calm   3.4 mph 65% 0.00 in 86.00 W/m2
16:03 76.6 °F 64.0 °F 29.87 in SSE 1.1 mph 6.9 mph 65% 0.00 in 63.00 W/m2
16:08 76.5 °F 63.9 °F 29.87 in South 2.3 mph 10.3 mph 65% 0.00 in 65.00 W/m2
16:13 76.4 °F 63.8 °F 29.87 in SSE 5.8 mph 6.9 mph 65% 0.00 in 69.00 W/m2
16:18 76.3 °F 63.7 °F 29.87 in Calm   1.1 mph 65% 0.00 in 62.00 W/m2
16:23 76.2 °F 63.6 °F 29.87 in South 6.9 mph 6.9 mph 65% 0.00 in 65.00 W/m2
16:28 76.8 °F 63.7 °F 29.87 in South 3.4 mph 8.1 mph 64% 0.00 in 58.00 W/m2
16:33 76.9 °F 63.8 °F 29.87 in WSW 1.1 mph 5.8 mph 64% 0.00 in 188.00 W/m2
16:38 76.7 °F 64.1 °F 29.88 in SE 6.9 mph 10.3 mph 65% 0.00 in 98.00 W/m2
16:44 76.6 °F 64.0 °F 29.88 in SSE 1.1 mph 3.4 mph 65% 0.00 in 153.00 W/m2
16:49 76.8 °F 63.7 °F 29.88 in South 6.9 mph 9.2 mph 64% 0.00 in 104.00 W/m2
16:54 76.6 °F 63.5 °F 29.88 in SSE 2.3 mph 4.6 mph 64% 0.00 in 53.00 W/m2
16:59 76.3 °F 64.1 °F 29.88 in SE 6.9 mph 11.5 mph 66% 0.00 in 51.00 W/m2
17:04 76.4 °F 63.8 °F 29.88 in SSE 4.6 mph 5.8 mph 65% 0.00 in 49.00 W/m2
17:09 76.7 °F 64.1 °F 29.88 in SE 5.8 mph 5.8 mph 65% 0.00 in 97.00 W/m2
17:14 76.8 °F 63.7 °F 29.88 in SSE 2.3 mph 4.6 mph 64% 0.00 in 281.00 W/m2
17:19 76.6 °F 64.0 °F 29.88 in ESE 4.6 mph 5.8 mph 65% 0.00 in 269.00 W/m2
17:24 76.8 °F 64.2 °F 29.88 in SSE 2.3 mph 5.8 mph 65% 0.00 in 257.00 W/m2
17:29 76.9 °F 64.2 °F 29.88 in SE 4.6 mph 4.6 mph 65% 0.00 in 239.00 W/m2
17:35 76.8 °F 64.2 °F 29.89 in SE 1.1 mph 4.6 mph 65% 0.00 in 223.00 W/m2
17:37 76.7 °F 64.5 °F 29.89 in SE 2.3 mph 5.8 mph 66% 0.00 in 213.00 W/m2
17:42 76.9 °F 64.7 °F 29.89 in SSE 2.3 mph 3.4 mph 66% 0.00 in 195.00 W/m2
17:47 76.8 °F 64.6 °F 29.89 in SSE 2.3 mph 2.3 mph 66% 0.00 in 176.00 W/m2
17:52 76.5 °F 63.9 °F 29.89 in SE 4.6 mph 5.8 mph 65% 0.00 in 158.00 W/m2
17:57 76.2 °F 64.0 °F 29.89 in SE 1.1 mph 5.8 mph 66% 0.00 in 141.00 W/m2
18:02 76.0 °F 63.8 °F 29.89 in SE 4.6 mph 5.8 mph 66% 0.00 in 123.00 W/m2
18:08 75.8 °F 64.1 °F 29.89 in Calm     67% 0.00 in 105.00 W/m2
18:13 75.2 °F 63.9 °F 29.89 in Calm     68% 0.00 in 88.00 W/m2
18:18 74.6 °F 63.8 °F 29.89 in SSE 3.4 mph 3.4 mph 69% 0.00 in 72.00 W/m2
18:23 74.3 °F 64.3 °F 29.89 in SSE 2.3 mph 5.8 mph 71% 0.00 in 58.00 W/m2
18:28 73.8 °F 63.8 °F 29.89 in Calm   5.8 mph 71% 0.00 in 46.00 W/m2
18:33 73.2 °F 64.0 °F 29.89 in Calm   1.1 mph 73% 0.00 in 35.00 W/m2
18:38 72.6 °F 63.8 °F 29.90 in Calm     74% 0.00 in 25.00 W/m2
18:43 71.9 °F 63.9 °F 29.89 in Calm     76% 0.00 in 18.00 W/m2
18:48 71.1 °F 63.5 °F 29.90 in SE 3.4 mph 3.4 mph 77% 0.00 in 11.00 W/m2
18:53 71.0 °F 63.4 °F 29.90 in Calm     77% 0.00 in 7.00 W/m2
18:58 70.3 °F 63.1 °F 29.90 in Calm     78% 0.00 in 5.00 W/m2
19:03 69.5 °F 63.1 °F 29.89 in Calm     80% 0.00 in 0.00 W/m2
19:08 68.9 °F 62.8 °F 29.89 in Calm   2.3 mph 81% 0.00 in 0.00 W/m2
19:14 68.5 °F 62.5 °F 29.89 in Calm     81% 0.00 in 0.00 W/m2
19:19 68.2 °F 62.5 °F 29.90 in Calm   3.4 mph 82% 0.00 in 0.00 W/m2
19:24 68.0 °F 62.3 °F 29.90 in Calm   3.4 mph 82% 0.00 in 0.00 W/m2
19:29 67.7 °F 62.4 °F 29.90 in Calm   3.4 mph 83% 0.00 in 0.00 W/m2
19:34 67.6 °F 62.3 °F 29.90 in Calm   3.4 mph 83% 0.00 in 0.00 W/m2
19:39 67.2 °F 61.9 °F 29.90 in Calm     83% 0.00 in 0.00 W/m2
19:44 66.8 °F 61.8 °F 29.91 in Calm   3.4 mph 84% 0.00 in 0.00 W/m2
19:49 66.4 °F 61.4 °F 29.91 in Calm     84% 0.00 in 0.00 W/m2
19:54 66.0 °F 61.7 °F 29.91 in Calm     86% 0.00 in 0.00 W/m2
19:59 65.7 °F 61.7 °F 29.91 in Calm     87% 0.00 in 0.00 W/m2
20:04 65.3 °F 61.3 °F 29.91 in Calm   3.4 mph 87% 0.00 in 0.00 W/m2
20:09 65.0 °F 61.4 °F 29.92 in Calm   2.3 mph 88% 0.00 in 0.00 W/m2
20:14 64.9 °F 61.3 °F 29.92 in SE 1.1 mph 2.3 mph 88% 0.00 in 0.00 W/m2
20:19 64.8 °F 61.2 °F 29.92 in Calm   2.3 mph 88% 0.00 in 0.00 W/m2
20:25 65.1 °F 61.5 °F 29.92 in Calm   1.1 mph 88% 0.00 in 0.00 W/m2
20:30 64.7 °F 61.1 °F 29.92 in Calm     88% 0.00 in 0.00 W/m2
20:35 64.3 °F 61.0 °F 29.92 in Calm     89% 0.00 in 0.00 W/m2
20:40 63.9 °F 60.6 °F 29.92 in Calm     89% 0.00 in 0.00 W/m2
20:45 63.6 °F 60.6 °F 29.92 in Calm     90% 0.00 in 0.00 W/m2
20:50 63.7 °F 60.7 °F 29.92 in SE 1.1 mph 2.3 mph 90% 0.00 in 0.00 W/m2
20:55 64.0 °F 61.0 °F 29.92 in SE 2.3 mph 4.6 mph 90% 0.00 in 0.00 W/m2
21:00 64.0 °F 60.7 °F 29.92 in ESE 2.3 mph 4.6 mph 89% 0.00 in 0.00 W/m2
21:05 63.8 °F 60.5 °F 29.92 in ESE 2.3 mph 4.6 mph 89% 0.00 in 0.00 W/m2
21:10 63.8 °F 60.5 °F 29.92 in ESE 2.3 mph 4.6 mph 89% 0.00 in 0.00 W/m2
21:16 63.5 °F 60.2 °F 29.92 in ESE 2.3 mph 4.6 mph 89% 0.00 in 0.00 W/m2
21:21 63.2 °F 59.9 °F 29.92 in Calm   2.3 mph 89% 0.00 in 0.00 W/m2
21:26 62.9 °F 59.9 °F 29.92 in ESE 2.3 mph 3.4 mph 90% 0.00 in 0.00 W/m2
21:31 62.6 °F 59.6 °F 29.92 in ESE 2.3 mph 4.6 mph 90% 0.00 in 0.00 W/m2
21:36 62.5 °F 59.8 °F 29.92 in Calm   2.3 mph 91% 0.00 in 0.00 W/m2
21:41 62.5 °F 59.8 °F 29.92 in Calm     91% 0.00 in 0.00 W/m2
21:46 62.3 °F 59.6 °F 29.93 in ESE 2.3 mph 3.4 mph 91% 0.00 in 0.00 W/m2
21:51 62.3 °F 59.6 °F 29.93 in ESE 1.1 mph 4.6 mph 91% 0.00 in 0.00 W/m2
21:56 62.2 °F 59.5 °F 29.93 in ESE 3.4 mph 4.6 mph 91% 0.00 in 0.00 W/m2
22:01 62.1 °F 59.8 °F 29.93 in Calm   4.6 mph 92% 0.00 in 0.00 W/m2
22:06 62.0 °F 59.7 °F 29.93 in Calm   4.6 mph 92% 0.00 in 0.00 W/m2
22:13 62.0 °F 59.7 °F 29.93 in ESE 2.3 mph 3.4 mph 92% 0.00 in 0.00 W/m2
22:21 61.8 °F 59.5 °F 29.93 in ESE 2.3 mph 3.4 mph 92% 0.00 in 0.00 W/m2
22:24 61.8 °F 59.5 °F 29.93 in ESE 2.3 mph 3.4 mph 92% 0.00 in 0.00 W/m2
22:29 61.8 °F 59.5 °F 29.93 in ESE 1.1 mph 2.3 mph 92% 0.00 in 0.00 W/m2
22:31 61.8 °F 59.5 °F 29.93 in ESE 2.3 mph 2.3 mph 92% 0.00 in 0.00 W/m2
22:33 61.8 °F 59.5 °F 29.93 in Calm   3.4 mph 92% 0.00 in 0.00 W/m2
22:38 61.7 °F 59.4 °F 29.93 in ESE 1.1 mph 2.3 mph 92% 0.00 in 0.00 W/m2
22:43 61.4 °F 59.1 °F 29.93 in Calm   1.1 mph 92% 0.00 in 0.00 W/m2
22:48 61.3 °F 59.3 °F 29.93 in Calm   2.3 mph 93% 0.00 in 0.00 W/m2
22:53 61.3 °F 59.3 °F 29.93 in Calm   1.1 mph 93% 0.00 in 0.00 W/m2
22:58 61.2 °F 59.2 °F 29.94 in Calm     93% 0.00 in 0.00 W/m2
23:03 60.9 °F 58.6 °F 29.94 in Calm     92% 0.00 in 0.00 W/m2
23:05 60.8 °F 58.8 °F 29.94 in Calm     93% 0.00 in 0.00 W/m2
23:10 60.6 °F 58.6 °F 29.94 in Calm   1.1 mph 93% 0.00 in 0.00 W/m2
23:16 60.5 °F 58.5 °F 29.94 in ESE 1.1 mph 1.1 mph 93% 0.00 in 0.00 W/m2
23:21 60.6 °F 58.9 °F 29.94 in Calm     94% 0.00 in 0.00 W/m2
23:26 60.7 °F 58.7 °F 29.94 in Calm   1.1 mph 93% 0.00 in 0.00 W/m2
23:31 60.4 °F 58.4 °F 29.94 in Calm   1.1 mph 93% 0.00 in 0.00 W/m2
23:36 60.3 °F 58.3 °F 29.94 in Calm   2.3 mph 93% 0.00 in 0.00 W/m2
23:41 60.2 °F 58.2 °F 29.94 in Calm   2.3 mph 93% 0.00 in 0.00 W/m2
23:46 60.1 °F 58.1 °F 29.94 in Calm   2.3 mph 93% 0.00 in 0.00 W/m2
23:51 60.1 °F 58.4 °F 29.94 in Calm   1.1 mph 94% 0.00 in 0.00 W/m2
23:56 60.1 °F 58.4 °F 29.94 in Calm   3.4 mph 94% 0.00 in 0.00 W/m2
peotoneweather.com
Compliments of Weather Underground - 3.5 mb